Portada
METAR-TAF:

METAR-TAF

Aeroports :

Gilze en Rijen, Països Baixos

latitud: 51-34N, longitud: 004-56E, altitud: 15 m

Observació

L'informe es va fer fa 24 minuts, a les 03:26 UTC
Vent 10 kt del Sud-Oest, variant entre Sud i Oest
Temperatura 9°C
Humitat 93%
Pressió 1018 hPa
Visibilitat: 6000 m
Escasses núvols a una alçada de 900 ft
Núvols disperses a una alçada de 2300 ft
Cel ennuvolat a una alçada de 3400 ft
xàfecs de pluja

METAR: EHGR 230326Z AUTO 23010KT 190V260 6000 -SHRA FEW009 SCT023 BKN034 09/08 Q1018 WHT

Hora: 04:50 (03:50 UTC)


TAF: manca

Observacions i pronòstics meteorològics de més de 4000 aeroports (METAR i TAF).

Les estacions disponibles són els punts grocs i vermells al mapa.

Posi el ratolí al punt desitjat per veure el nom de l'estació.

Feu clic per veure les observacions i els pronòstics meteorològics.

Per canviar el mapa: feu clic els botons verds amb una creu de color negre per apropar; al botó verd amb un guió per allunyar la imatge; o en les fletxes verdes per a mapes adjacents.


METAR-TAF: